sensor_id;sensor_type;location;lat;lon;timestamp;pressure;altitude;pressure_sealevel;temperature;humidity
11114;BME280;5610;52.154;9.198;2023-01-28T00:01:31;101997.72;;;3.94;100.00
11114;BME280;5610;52.154;9.198;2023-01-28T00:04:16;101990.72;;;3.93;100.00
11114;BME280;5610;52.154;9.198;2023-01-28T00:07:01;101991.59;;;3.95;100.00
11114;BME280;5610;52.154;9.198;2023-01-28T00:09:47;101998.59;;;3.96;100.00
11114;BME280;5610;52.154;9.198;2023-01-28T00:12:32;101996.84;;;3.96;100.00
11114;BME280;5610;52.154;9.198;2023-01-28T00:15:18;101990.69;;;3.94;100.00
11114;BME280;5610;52.154;9.198;2023-01-28T00:18:04;102000.38;;;3.94;100.00
11114;BME280;5610;52.154;9.198;2023-01-28T00:20:57;102006.56;;;3.91;100.00
11114;BME280;5610;52.154;9.198;2023-01-28T00:23:46;101996.91;;;3.90;100.00
11114;BME280;5610;52.154;9.198;2023-01-28T00:26:32;101990.75;;;3.90;100.00
11114;BME280;5610;52.154;9.198;2023-01-28T00:29:17;101988.09;;;3.91;100.00
11114;BME280;5610;52.154;9.198;2023-01-28T00:32:03;101989.00;;;3.90;100.00
11114;BME280;5610;52.154;9.198;2023-01-28T00:34:49;101996.00;;;3.91;100.00
11114;BME280;5610;52.154;9.198;2023-01-28T00:37:34;101993.41;;;3.88;100.00
11114;BME280;5610;52.154;9.198;2023-01-28T00:40:20;102001.31;;;3.90;100.00
11114;BME280;5610;52.154;9.198;2023-01-28T00:43:06;101995.16;;;3.89;100.00
11114;BME280;5610;52.154;9.198;2023-01-28T00:45:51;101995.16;;;3.89;100.00
11114;BME280;5610;52.154;9.198;2023-01-28T00:48:37;101996.94;;;3.89;100.00
11114;BME280;5610;52.154;9.198;2023-01-28T00:51:24;102000.44;;;3.88;100.00
11114;BME280;5610;52.154;9.198;2023-01-28T00:54:10;102002.19;;;3.87;100.00
11114;BME280;5610;52.154;9.198;2023-01-28T00:56:56;101995.22;;;3.84;100.00
11114;BME280;5610;52.154;9.198;2023-01-28T00:59:41;101995.22;;;3.84;100.00
11114;BME280;5610;52.154;9.198;2023-01-28T01:02:27;101999.63;;;3.84;100.00
11114;BME280;5610;52.154;9.198;2023-01-28T01:05:13;101987.31;;;3.84;100.00
11114;BME280;5610;52.154;9.198;2023-01-28T01:08:00;101992.56;;;3.84;100.00
11114;BME280;5610;52.154;9.198;2023-01-28T01:10:45;101996.06;;;3.86;100.00
11114;BME280;5610;52.154;9.198;2023-01-28T01:13:31;101991.66;;;3.87;100.00
11114;BME280;5610;52.154;9.198;2023-01-28T01:16:18;102002.19;;;3.87;100.00
11114;BME280;5610;52.154;9.198;2023-01-28T01:19:06;102001.34;;;3.88;100.00
11114;BME280;5610;52.154;9.198;2023-01-28T01:21:53;101984.59;;;3.88;100.00
11114;BME280;5610;52.154;9.198;2023-01-28T01:24:41;101986.41;;;3.85;100.00
11114;BME280;5610;52.154;9.198;2023-01-28T01:27:26;101989.91;;;3.86;100.00
11114;BME280;5610;52.154;9.198;2023-01-28T01:30:12;101983.78;;;3.85;100.00
11114;BME280;5610;52.154;9.198;2023-01-28T01:32:58;101986.41;;;3.85;100.00
11114;BME280;5610;52.154;9.198;2023-01-28T01:35:43;101987.34;;;3.81;100.00
11114;BME280;5610;52.154;9.198;2023-01-28T01:38:29;101985.59;;;3.82;100.00
11114;BME280;5610;52.154;9.198;2023-01-28T01:41:23;101983.81;;;3.82;100.00
11114;BME280;5610;52.154;9.198;2023-01-28T01:47:36;101997.91;;;3.78;100.00
11114;BME280;5610;52.154;9.198;2023-01-28T01:50:27;101993.50;;;3.79;100.00
11114;BME280;5610;52.154;9.198;2023-01-28T01:53:16;101993.50;;;3.79;100.00
11114;BME280;5610;52.154;9.198;2023-01-28T01:56:05;101990.03;;;3.77;100.00
11114;BME280;5610;52.154;9.198;2023-01-28T01:58:54;101996.22;;;3.74;100.00
11114;BME280;5610;52.154;9.198;2023-01-28T02:01:41;101991.81;;;3.73;100.00
11114;BME280;5610;52.154;9.198;2023-01-28T02:04:30;101998.00;;;3.74;100.00
11114;BME280;5610;52.154;9.198;2023-01-28T02:07:17;102012.91;;;3.73;100.00
11114;BME280;5610;52.154;9.198;2023-01-28T02:10:04;102008.53;;;3.72;100.00
11114;BME280;5610;52.154;9.198;2023-01-28T02:12:54;102012.03;;;3.76;100.00
11114;BME280;5610;52.154;9.198;2023-01-28T02:15:45;102008.53;;;3.72;100.00
11114;BME280;5610;52.154;9.198;2023-01-28T02:18:32;102014.69;;;3.71;100.00
11114;BME280;5610;52.154;9.198;2023-01-28T02:21:37;102018.22;;;3.70;100.00
11114;BME280;5610;52.154;9.198;2023-01-28T02:24:53;102015.63;;;3.69;100.00
11114;BME280;5610;52.154;9.198;2023-01-28T02:28:00;102015.63;;;3.69;100.00
11114;BME280;5610;52.154;9.198;2023-01-28T02:30:56;102028.00;;;3.61;100.00
11114;BME280;5610;52.154;9.198;2023-01-28T02:33:51;102020.06;;;3.64;100.00
11114;BME280;5610;52.154;9.198;2023-01-28T02:36:43;102015.63;;;3.67;100.00
11114;BME280;5610;52.154;9.198;2023-01-28T02:39:34;102024.41;;;3.69;100.00
11114;BME280;5610;52.154;9.198;2023-01-28T02:42:22;102018.25;;;3.69;100.00
11114;BME280;5610;52.154;9.198;2023-01-28T02:45:19;102006.84;;;3.68;100.00
11114;BME280;5610;52.154;9.198;2023-01-28T02:48:05;102010.41;;;3.63;100.00
11114;BME280;5610;52.154;9.198;2023-01-28T02:50:53;102010.38;;;3.64;100.00
11114;BME280;5610;52.154;9.198;2023-01-28T02:53:48;102004.22;;;3.65;100.00
11114;BME280;5610;52.154;9.198;2023-01-28T02:56:41;102005.09;;;3.66;100.00
11114;BME280;5610;52.154;9.198;2023-01-28T02:59:34;102008.59;;;3.68;100.00
11114;BME280;5610;52.154;9.198;2023-01-28T03:02:29;102007.72;;;3.66;100.00
11114;BME280;5610;52.154;9.198;2023-01-28T03:05:20;102000.72;;;3.65;100.00
11114;BME280;5610;52.154;9.198;2023-01-28T03:08:07;102006.88;;;3.64;100.00
11114;BME280;5610;52.154;9.198;2023-01-28T03:11:08;102002.50;;;3.63;100.00
11114;BME280;5610;52.154;9.198;2023-01-28T03:14:11;102002.53;;;3.61;100.00
11114;BME280;5610;52.154;9.198;2023-01-28T03:17:17;102009.66;;;3.50;100.00
11114;BME280;5610;52.154;9.198;2023-01-28T03:20:24;102000.88;;;3.52;100.00
11114;BME280;5610;52.154;9.198;2023-01-28T03:23:31;102003.47;;;3.54;100.00
11114;BME280;5610;52.154;9.198;2023-01-28T03:26:43;101993.81;;;3.54;100.00
11114;BME280;5610;52.154;9.198;2023-01-28T03:29:50;101992.91;;;3.55;100.00
11114;BME280;5610;52.154;9.198;2023-01-28T03:32:57;101999.03;;;3.57;100.00
11114;BME280;5610;52.154;9.198;2023-01-28T03:36:03;101999.91;;;3.58;100.00
11114;BME280;5610;52.154;9.198;2023-01-28T03:39:08;102002.59;;;3.52;100.00
11114;BME280;5610;52.154;9.198;2023-01-28T03:41:56;101995.59;;;3.51;100.00
11114;BME280;5610;52.154;9.198;2023-01-28T03:44:42;101984.16;;;3.52;100.00
11114;BME280;5610;52.154;9.198;2023-01-28T03:47:35;101990.38;;;3.48;100.00
11114;BME280;5610;52.154;9.198;2023-01-28T03:50:24;101986.84;;;3.47;100.00
11114;BME280;5610;52.154;9.198;2023-01-28T03:53:17;101986.03;;;3.41;100.00
11114;BME280;5610;52.154;9.198;2023-01-28T03:56:04;101992.22;;;3.40;100.00
11114;BME280;5610;52.154;9.198;2023-01-28T03:58:50;101992.22;;;3.37;100.00
11114;BME280;5610;52.154;9.198;2023-01-28T04:01:40;101991.41;;;3.30;100.00
11114;BME280;5610;52.154;9.198;2023-01-28T04:04:25;101986.19;;;3.24;100.00
11114;BME280;5610;52.154;9.198;2023-01-28T04:07:13;101997.63;;;3.23;100.00
11114;BME280;5610;52.154;9.198;2023-01-28T04:10:20;101999.38;;;3.24;100.00
11114;BME280;5610;52.154;9.198;2023-01-28T04:13:09;101993.22;;;3.23;100.00
11114;BME280;5610;52.154;9.198;2023-01-28T04:15:55;101995.88;;;3.22;100.00
11114;BME280;5610;52.154;9.198;2023-01-28T04:18:41;102002.97;;;3.18;100.00
11114;BME280;5610;52.154;9.198;2023-01-28T04:21:26;102009.94;;;3.21;100.00
11114;BME280;5610;52.154;9.198;2023-01-28T04:24:12;102013.47;;;3.21;100.00
11114;BME280;5610;52.154;9.198;2023-01-28T04:26:59;102021.34;;;3.24;100.00
11114;BME280;5610;52.154;9.198;2023-01-28T04:29:44;102025.72;;;3.24;100.00
11114;BME280;5610;52.154;9.198;2023-01-28T04:32:56;102021.38;;;3.20;100.00
11114;BME280;5610;52.154;9.198;2023-01-28T04:35:49;102031.88;;;3.24;100.00
11114;BME280;5610;52.154;9.198;2023-01-28T04:38:59;102030.19;;;3.17;100.00
11114;BME280;5610;52.154;9.198;2023-01-28T04:41:55;102035.41;;;3.20;100.00
11114;BME280;5610;52.154;9.198;2023-01-28T04:44:55;102031.00;;;3.25;100.00
11114;BME280;5610;52.154;9.198;2023-01-28T04:48:03;102039.69;;;3.30;100.00
11114;BME280;5610;52.154;9.198;2023-01-28T04:51:08;102043.25;;;3.28;100.00
11114;BME280;5610;52.154;9.198;2023-01-28T04:54:23;102031.81;;;3.32;100.00
11114;BME280;5610;52.154;9.198;2023-01-28T04:57:10;102029.97;;;3.37;100.00
11114;BME280;5610;52.154;9.198;2023-01-28T04:59:57;102030.88;;;3.39;100.00
11114;BME280;5610;52.154;9.198;2023-01-28T05:02:44;102025.56;;;3.41;100.00
11114;BME280;5610;52.154;9.198;2023-01-28T05:05:29;102036.97;;;3.41;100.00
11114;BME280;5610;52.154;9.198;2023-01-28T05:08:20;102037.00;;;3.37;100.00
11114;BME280;5610;52.154;9.198;2023-01-28T05:11:05;102037.91;;;3.39;100.00
11114;BME280;5610;52.154;9.198;2023-01-28T05:13:50;102036.13;;;3.39;100.00
11114;BME280;5610;52.154;9.198;2023-01-28T05:16:38;102027.34;;;3.40;100.00
11114;BME280;5610;52.154;9.198;2023-01-28T05:19:24;102025.56;;;3.41;100.00
11114;BME280;5610;52.154;9.198;2023-01-28T05:22:09;102034.34;;;3.38;100.00
11114;BME280;5610;52.154;9.198;2023-01-28T05:24:59;102036.31;;;3.18;100.00
11114;BME280;5610;52.154;9.198;2023-01-28T05:27:49;102027.50;;;3.20;100.00
11114;BME280;5610;52.154;9.198;2023-01-28T05:30:34;102026.59;;;3.26;100.00
11114;BME280;5610;52.154;9.198;2023-01-28T05:33:21;102034.44;;;3.30;100.00
11114;BME280;5610;52.154;9.198;2023-01-28T05:36:06;102032.69;;;3.33;100.00
11114;BME280;5610;52.154;9.198;2023-01-28T05:38:52;102035.28;;;3.34;99.43
11114;BME280;5610;52.154;9.198;2023-01-28T05:41:37;102034.41;;;3.35;100.00
11114;BME280;5610;52.154;9.198;2023-01-28T05:44:23;102030.91;;;3.35;97.32
11114;BME280;5610;52.154;9.198;2023-01-28T05:47:44;102028.28;;;3.33;100.00
11114;BME280;5610;52.154;9.198;2023-01-28T05:50:54;102030.91;;;3.33;100.00
11114;BME280;5610;52.154;9.198;2023-01-28T05:53:48;102021.25;;;3.34;100.00
11114;BME280;5610;52.154;9.198;2023-01-28T05:56:34;102028.28;;;3.33;100.00
11114;BME280;5610;52.154;9.198;2023-01-28T05:59:19;102036.22;;;3.32;100.00
11114;BME280;5610;52.154;9.198;2023-01-28T06:02:07;102030.94;;;3.28;100.00
11114;BME280;5610;52.154;9.198;2023-01-28T06:04:53;102030.97;;;3.27;100.00
11114;BME280;5610;52.154;9.198;2023-01-28T06:07:43;102032.75;;;3.22;100.00
11114;BME280;5610;52.154;9.198;2023-01-28T06:10:28;102030.97;;;3.24;100.00
11114;BME280;5610;52.154;9.198;2023-01-28T06:13:14;102032.75;;;3.22;100.00
11114;BME280;5610;52.154;9.198;2023-01-28T06:16:18;102038.03;;;3.22;100.00
11114;BME280;5610;52.154;9.198;2023-01-28T06:19:21;102035.41;;;3.22;100.00
11114;BME280;5610;52.154;9.198;2023-01-28T06:22:07;102036.28;;;3.21;100.00
11114;BME280;5610;52.154;9.198;2023-01-28T06:24:53;102037.13;;;3.23;100.00
11114;BME280;5610;52.154;9.198;2023-01-28T06:27:39;102045.94;;;3.22;100.00
11114;BME280;5610;52.154;9.198;2023-01-28T06:30:24;102046.84;;;3.19;100.00
11114;BME280;5610;52.154;9.198;2023-01-28T06:33:09;102037.19;;;3.18;100.00
11114;BME280;5610;52.154;9.198;2023-01-28T06:35:55;102042.47;;;3.18;100.00
11114;BME280;5610;52.154;9.198;2023-01-28T06:38:40;102034.56;;;3.18;100.00
11114;BME280;5610;52.154;9.198;2023-01-28T06:41:27;102033.69;;;3.18;100.00
11114;BME280;5610;52.154;9.198;2023-01-28T06:44:12;102046.00;;;3.17;100.00
11114;BME280;5610;52.154;9.198;2023-01-28T06:46:58;102044.25;;;3.15;100.00
11114;BME280;5610;52.154;9.198;2023-01-28T06:49:43;102049.50;;;3.15;100.00
11114;BME280;5610;52.154;9.198;2023-01-28T06:52:28;102044.25;;;3.15;100.00
11114;BME280;5610;52.154;9.198;2023-01-28T06:55:14;102043.34;;;3.16;100.00
11114;BME280;5610;52.154;9.198;2023-01-28T06:58:00;102034.59;;;3.14;100.00
11114;BME280;5610;52.154;9.198;2023-01-28T07:00:46;102042.53;;;3.12;100.00
11114;BME280;5610;52.154;9.198;2023-01-28T07:03:31;102038.16;;;3.11;100.00
11114;BME280;5610;52.154;9.198;2023-01-28T07:06:16;102062.69;;;3.13;100.00
11114;BME280;5610;52.154;9.198;2023-01-28T07:09:02;102039.88;;;3.12;100.00
11114;BME280;5610;52.154;9.198;2023-01-28T07:11:47;102045.16;;;3.09;100.00
11114;BME280;5610;52.154;9.198;2023-01-28T07:14:34;102046.03;;;3.10;100.00
11114;BME280;5610;52.154;9.198;2023-01-28T07:17:19;102046.03;;;3.10;100.00
11114;BME280;5610;52.154;9.198;2023-01-28T07:20:06;102043.41;;;3.11;100.00
11114;BME280;5610;52.154;9.198;2023-01-28T07:22:52;102046.91;;;3.12;100.00
11114;BME280;5610;52.154;9.198;2023-01-28T07:25:37;102051.31;;;3.11;100.00
11114;BME280;5610;52.154;9.198;2023-01-28T07:28:23;102045.16;;;3.12;100.00
11114;BME280;5610;52.154;9.198;2023-01-28T07:31:09;102045.97;;;3.16;100.00
11114;BME280;5610;52.154;9.198;2023-01-28T07:33:55;102050.38;;;3.18;94.73
11114;BME280;5610;52.154;9.198;2023-01-28T07:36:40;102047.72;;;3.20;92.94
11114;BME280;5610;52.154;9.198;2023-01-28T07:39:25;102041.53;;;3.24;100.00
11114;BME280;5610;52.154;9.198;2023-01-28T07:42:11;102045.03;;;3.26;100.00
11114;BME280;5610;52.154;9.198;2023-01-28T07:45:03;102056.44;;;3.26;100.00
11114;BME280;5610;52.154;9.198;2023-01-28T07:47:54;102051.16;;;3.26;100.00
11114;BME280;5610;52.154;9.198;2023-01-28T07:50:40;102059.94;;;3.27;100.00
11114;BME280;5610;52.154;9.198;2023-01-28T07:53:25;102069.53;;;3.34;100.00
11114;BME280;5610;52.154;9.198;2023-01-28T07:56:11;102069.50;;;3.39;100.00
11114;BME280;5610;52.154;9.198;2023-01-28T07:58:56;102069.44;;;3.45;100.00
11114;BME280;5610;52.154;9.198;2023-01-28T08:01:41;102072.88;;;3.51;97.05
11114;BME280;5610;52.154;9.198;2023-01-28T08:04:28;102064.97;;;3.54;99.41
11114;BME280;5610;52.154;9.198;2023-01-28T08:07:13;102063.16;;;3.60;99.96
11114;BME280;5610;52.154;9.198;2023-01-28T08:09:58;102063.97;;;3.65;97.21
11114;BME280;5610;52.154;9.198;2023-01-28T08:12:51;102067.41;;;3.71;96.99
11114;BME280;5610;52.154;9.198;2023-01-28T08:15:38;102079.66;;;3.77;93.79
11114;BME280;5610;52.154;9.198;2023-01-28T08:18:24;102075.22;;;3.82;93.52
11114;BME280;5610;52.154;9.198;2023-01-28T08:21:10;102083.94;;;3.90;93.50
11114;BME280;5610;52.154;9.198;2023-01-28T08:23:56;102097.06;;;3.95;94.19
11114;BME280;5610;52.154;9.198;2023-01-28T08:26:41;102098.75;;;4.00;92.78
11114;BME280;5610;52.154;9.198;2023-01-28T08:29:27;102093.47;;;4.03;92.11
11114;BME280;5610;52.154;9.198;2023-01-28T08:32:12;102101.41;;;4.02;91.22
11114;BME280;5610;52.154;9.198;2023-01-28T08:34:58;102112.84;;;3.98;88.35
11114;BME280;5610;52.154;9.198;2023-01-28T08:37:45;102111.91;;;4.03;88.18
11114;BME280;5610;52.154;9.198;2023-01-28T08:40:30;102123.25;;;4.11;88.40
11114;BME280;5610;52.154;9.198;2023-01-28T08:43:16;102118.81;;;4.13;86.77
11114;BME280;5610;52.154;9.198;2023-01-28T08:46:04;102132.84;;;4.19;87.58
11114;BME280;5610;52.154;9.198;2023-01-28T08:48:49;102124.00;;;4.23;86.65
11114;BME280;5610;52.154;9.198;2023-01-28T08:51:35;102131.00;;;4.27;89.93
11114;BME280;5610;52.154;9.198;2023-01-28T08:54:21;102129.13;;;4.35;89.33
11114;BME280;5610;52.154;9.198;2023-01-28T08:57:06;102131.75;;;4.36;85.56
11114;BME280;5610;52.154;9.198;2023-01-28T08:59:52;102134.31;;;4.43;86.83
11114;BME280;5610;52.154;9.198;2023-01-28T09:02:37;102142.25;;;4.44;87.54
11114;BME280;5610;52.154;9.198;2023-01-28T09:05:22;102140.38;;;4.51;86.88
11114;BME280;5610;52.154;9.198;2023-01-28T09:08:10;102142.91;;;4.60;87.64
11114;BME280;5610;52.154;9.198;2023-01-28T09:10:57;102150.75;;;4.66;85.82
11114;BME280;5610;52.154;9.198;2023-01-28T09:13:42;102163.00;;;4.70;84.76
11114;BME280;5610;52.154;9.198;2023-01-28T09:16:28;102156.78;;;4.76;84.74
11114;BME280;5610;52.154;9.198;2023-01-28T09:19:14;102161.16;;;4.77;84.63
11114;BME280;5610;52.154;9.198;2023-01-28T09:21:59;102167.53;;;4.62;83.91
11114;BME280;5610;52.154;9.198;2023-01-28T09:24:44;102174.66;;;4.54;85.32
11114;BME280;5610;52.154;9.198;2023-01-28T09:27:31;102180.22;;;4.29;86.88
11114;BME280;5610;52.154;9.198;2023-01-28T09:30:16;102180.25;;;4.26;87.61
11114;BME280;5610;52.154;9.198;2023-01-28T09:33:01;102181.28;;;4.13;86.35
11114;BME280;5610;52.154;9.198;2023-01-28T09:35:46;102180.41;;;4.12;85.01
11114;BME280;5610;52.154;9.198;2023-01-28T09:38:32;102196.38;;;3.97;84.43
11114;BME280;5610;52.154;9.198;2023-01-28T09:41:25;102197.28;;;3.93;87.21
11114;BME280;5610;52.154;9.198;2023-01-28T09:44:28;102205.16;;;3.99;86.50
11114;BME280;5610;52.154;9.198;2023-01-28T09:47:21;102191.00;;;4.06;88.12
11114;BME280;5610;52.154;9.198;2023-01-28T09:50:11;102186.59;;;4.10;89.95
11114;BME280;5610;52.154;9.198;2023-01-28T09:53:01;102181.31;;;4.10;87.88
11114;BME280;5610;52.154;9.198;2023-01-28T09:55:50;102185.69;;;4.11;87.28
11114;BME280;5610;52.154;9.198;2023-01-28T09:58:40;102188.25;;;4.19;88.96
11114;BME280;5610;52.154;9.198;2023-01-28T10:01:35;102199.50;;;4.36;89.88
11114;BME280;5610;52.154;9.198;2023-01-28T10:04:31;102197.72;;;4.36;87.67
11114;BME280;5610;52.154;9.198;2023-01-28T10:07:28;102192.66;;;4.18;86.26
11114;BME280;5610;52.154;9.198;2023-01-28T10:10:19;102196.69;;;4.50;86.71
11114;BME280;5610;52.154;9.198;2023-01-28T10:13:23;102196.06;;;4.28;84.58
11114;BME280;5610;52.154;9.198;2023-01-28T10:16:18;102191.47;;;4.47;85.37
11114;BME280;5610;52.154;9.198;2023-01-28T10:19:15;102188.81;;;4.48;84.83
11114;BME280;5610;52.154;9.198;2023-01-28T10:22:06;102182.63;;;4.49;85.24
11114;BME280;5610;52.154;9.198;2023-01-28T10:24:55;102178.28;;;4.44;83.82
11114;BME280;5610;52.154;9.198;2023-01-28T10:27:46;102171.78;;;4.72;83.47
11114;BME280;5610;52.154;9.198;2023-01-28T10:30:34;102168.91;;;4.90;81.62
11114;BME280;5610;52.154;9.198;2023-01-28T10:33:23;102163.44;;;5.04;79.82
11114;BME280;5610;52.154;9.198;2023-01-28T10:36:14;102171.31;;;5.09;79.11
11114;BME280;5610;52.154;9.198;2023-01-28T10:39:01;102173.19;;;5.01;78.54
11114;BME280;5610;52.154;9.198;2023-01-28T10:41:46;102174.97;;;4.97;79.08
11114;BME280;5610;52.154;9.198;2023-01-28T10:44:35;102173.25;;;4.94;78.48
11114;BME280;5610;52.154;9.198;2023-01-28T10:47:28;102181.13;;;4.97;78.99
11114;BME280;5610;52.154;9.198;2023-01-28T10:50:18;102174.13;;;4.95;79.30
11114;BME280;5610;52.154;9.198;2023-01-28T10:53:07;102173.22;;;4.96;80.11
11114;BME280;5610;52.154;9.198;2023-01-28T10:55:54;102187.44;;;4.86;80.38
11114;BME280;5610;52.154;9.198;2023-01-28T10:58:47;102184.47;;;4.43;81.46
11114;BME280;5610;52.154;9.198;2023-01-28T11:01:43;102188.63;;;4.63;82.42
11114;BME280;5610;52.154;9.198;2023-01-28T11:04:30;102179.81;;;4.66;84.05
11114;BME280;5610;52.154;9.198;2023-01-28T11:07:18;102182.44;;;4.64;83.12
11114;BME280;5610;52.154;9.198;2023-01-28T11:13:15;102197.97;;;4.13;84.85
11114;BME280;5610;52.154;9.198;2023-01-28T11:16:02;102188.22;;;4.20;84.67
11114;BME280;5610;52.154;9.198;2023-01-28T11:18:51;102184.28;;;3.73;89.25
11114;BME280;5610;52.154;9.198;2023-01-28T11:21:37;102185.84;;;3.97;89.63
11114;BME280;5610;52.154;9.198;2023-01-28T11:24:26;102184.00;;;4.04;87.61
11114;BME280;5610;52.154;9.198;2023-01-28T11:27:15;102177.94;;;3.94;86.41
11114;BME280;5610;52.154;9.198;2023-01-28T11:30:04;102166.53;;;3.92;86.26
11114;BME280;5610;52.154;9.198;2023-01-28T11:32:55;102178.69;;;4.07;86.17
11114;BME280;5610;52.154;9.198;2023-01-28T11:35:51;102176.72;;;4.27;84.16
11114;BME280;5610;52.154;9.198;2023-01-28T11:38:47;102174.72;;;4.48;81.97
11114;BME280;5610;52.154;9.198;2023-01-28T11:41:35;102173.53;;;4.75;80.22
11114;BME280;5610;52.154;9.198;2023-01-28T11:44:22;102168.72;;;5.04;77.72
11114;BME280;5610;52.154;9.198;2023-01-28T11:47:15;102164.75;;;5.33;76.72
11114;BME280;5610;52.154;9.198;2023-01-28T11:50:21;102157.31;;;5.56;73.81
11114;BME280;5610;52.154;9.198;2023-01-28T11:53:21;102140.47;;;6.14;73.75
11114;BME280;5610;52.154;9.198;2023-01-28T11:56:33;102135.63;;;6.76;69.70
11114;BME280;5610;52.154;9.198;2023-01-28T11:59:42;102129.50;;;7.84;61.59
11114;BME280;5610;52.154;9.198;2023-01-28T12:02:42;102115.06;;;15.60;45.97
11114;BME280;5610;52.154;9.198;2023-01-28T12:05:47;102115.13;;;21.50;34.59
11114;BME280;5610;52.154;9.198;2023-01-28T12:08:37;102110.56;;;22.95;30.66
11114;BME280;5610;52.154;9.198;2023-01-28T12:11:32;102099.31;;;25.61;28.48
11114;BME280;5610;52.154;9.198;2023-01-28T12:14:49;102094.78;;;27.98;26.03
11114;BME280;5610;52.154;9.198;2023-01-28T12:17:53;102084.13;;;24.31;27.98
11114;BME280;5610;52.154;9.198;2023-01-28T12:20:48;102096.38;;;19.32;32.36
11114;BME280;5610;52.154;9.198;2023-01-28T12:23:58;102083.53;;;15.94;37.02
11114;BME280;5610;52.154;9.198;2023-01-28T12:26:49;102073.28;;;13.62;41.72
11114;BME280;5610;52.154;9.198;2023-01-28T12:29:42;102050.88;;;17.38;35.42
11114;BME280;5610;52.154;9.198;2023-01-28T12:32:40;102030.84;;;22.44;29.28
11114;BME280;5610;52.154;9.198;2023-01-28T12:35:42;102013.50;;;27.41;25.32
11114;BME280;5610;52.154;9.198;2023-01-28T12:38:43;101997.47;;;28.88;24.18
11114;BME280;5610;52.154;9.198;2023-01-28T12:41:35;101979.00;;;29.95;22.84
11114;BME280;5610;52.154;9.198;2023-01-28T12:44:28;101967.47;;;30.00;22.09
11114;BME280;5610;52.154;9.198;2023-01-28T12:47:17;101953.44;;;30.75;21.92
11114;BME280;5610;52.154;9.198;2023-01-28T12:50:12;101949.47;;;30.84;21.82
11114;BME280;5610;52.154;9.198;2023-01-28T12:53:04;101943.69;;;29.77;22.89
11114;BME280;5610;52.154;9.198;2023-01-28T12:55:59;101945.09;;;31.95;21.40
11114;BME280;5610;52.154;9.198;2023-01-28T12:58:52;101948.75;;;32.03;20.36
11114;BME280;5610;52.154;9.198;2023-01-28T13:01:42;101966.13;;;28.21;22.31
11114;BME280;5610;52.154;9.198;2023-01-28T13:04:35;101980.09;;;23.90;25.67
11114;BME280;5610;52.154;9.198;2023-01-28T13:07:24;101981.84;;;19.80;29.76
11114;BME280;5610;52.154;9.198;2023-01-28T13:10:18;101985.91;;;17.68;31.76
11114;BME280;5610;52.154;9.198;2023-01-28T13:13:08;101961.97;;;15.75;34.30
11114;BME280;5610;52.154;9.198;2023-01-28T13:15:58;101966.34;;;17.14;34.10
11114;BME280;5610;52.154;9.198;2023-01-28T13:18:45;101975.78;;;15.69;36.12
11114;BME280;5610;52.154;9.198;2023-01-28T13:21:33;101972.78;;;17.11;33.12
11114;BME280;5610;52.154;9.198;2023-01-28T13:24:22;101984.69;;;18.60;32.23
11114;BME280;5610;52.154;9.198;2023-01-28T13:27:21;101990.00;;;23.81;27.47
11114;BME280;5610;52.154;9.198;2023-01-28T13:30:23;101992.94;;;26.96;24.36
11114;BME280;5610;52.154;9.198;2023-01-28T13:33:25;101993.13;;;28.71;24.04
11114;BME280;5610;52.154;9.198;2023-01-28T13:36:22;101996.75;;;28.94;23.58
11114;BME280;5610;52.154;9.198;2023-01-28T13:39:17;102000.34;;;29.93;22.46
11114;BME280;5610;52.154;9.198;2023-01-28T13:42:22;102005.34;;;29.37;22.71
11114;BME280;5610;52.154;9.198;2023-01-28T13:45:19;102020.97;;;29.37;22.73
11114;BME280;5610;52.154;9.198;2023-01-28T13:48:19;102010.66;;;29.62;22.83
11114;BME280;5610;52.154;9.198;2023-01-28T13:51:14;102011.28;;;29.26;21.99
11114;BME280;5610;52.154;9.198;2023-01-28T13:54:03;102016.09;;;29.47;22.31
11114;BME280;5610;52.154;9.198;2023-01-28T13:57:16;102012.59;;;29.53;23.19
11114;BME280;5610;52.154;9.198;2023-01-28T14:00:14;102022.56;;;29.31;22.52
11114;BME280;5610;52.154;9.198;2023-01-28T14:03:35;102004.97;;;28.40;22.76
11114;BME280;5610;52.154;9.198;2023-01-28T14:07:09;101999.34;;;27.21;23.90
11114;BME280;5610;52.154;9.198;2023-01-28T14:10:35;101990.22;;;26.96;23.55
11114;BME280;5610;52.154;9.198;2023-01-28T14:13:49;101976.00;;;25.66;25.47
11114;BME280;5610;52.154;9.198;2023-01-28T14:16:43;101963.41;;;24.40;26.12
11114;BME280;5610;52.154;9.198;2023-01-28T14:19:37;101958.19;;;23.82;26.23
11114;BME280;5610;52.154;9.198;2023-01-28T14:22:23;101944.81;;;23.42;27.51
11114;BME280;5610;52.154;9.198;2023-01-28T14:25:11;101945.28;;;22.79;27.22
11114;BME280;5610;52.154;9.198;2023-01-28T14:27:59;101939.16;;;21.87;27.11
11114;BME280;5610;52.154;9.198;2023-01-28T14:30:52;101943.22;;;20.88;29.22
11114;BME280;5610;52.154;9.198;2023-01-28T14:33:40;101946.47;;;19.25;30.28
11114;BME280;5610;52.154;9.198;2023-01-28T14:36:25;101952.59;;;16.37;32.63
11114;BME280;5610;52.154;9.198;2023-01-28T14:39:16;101961.38;;;13.85;37.63
11114;BME280;5610;52.154;9.198;2023-01-28T14:42:03;101982.13;;;12.02;40.33
11114;BME280;5610;52.154;9.198;2023-01-28T14:44:58;101993.47;;;10.85;43.08
11114;BME280;5610;52.154;9.198;2023-01-28T14:47:59;102015.13;;;9.60;46.08
11114;BME280;5610;52.154;9.198;2023-01-28T14:51:11;102023.78;;;8.61;48.69
11114;BME280;5610;52.154;9.198;2023-01-28T14:54:10;102018.03;;;7.84;50.34
11114;BME280;5610;52.154;9.198;2023-01-28T14:57:15;102017.13;;;7.20;52.50
11114;BME280;5610;52.154;9.198;2023-01-28T15:00:16;102023.72;;;6.67;54.21
11114;BME280;5610;52.154;9.198;2023-01-28T15:03:08;102020.22;;;6.27;56.99
11114;BME280;5610;52.154;9.198;2023-01-28T15:06:05;102020.06;;;5.90;59.26
11114;BME280;5610;52.154;9.198;2023-01-28T15:08:51;102017.31;;;5.50;60.65
11114;BME280;5610;52.154;9.198;2023-01-28T15:11:38;102016.00;;;5.24;64.79
11114;BME280;5610;52.154;9.198;2023-01-28T15:14:28;102018.16;;;5.03;65.09
11114;BME280;5610;52.154;9.198;2023-01-28T15:17:22;102022.91;;;4.81;66.81